Pagrindinis puslapis
METAR-TAF:

METAR-TAF

Oro uostai :

Alta, Norvegija

platuma: 69-59N, ilguma: 023-22E, Aukštis: 0 m

Dabartinis oras

Ataskaita buvo paskelbta 20 minutes, ne 04:50 UTC
Vėjas 8 kt iš Vakarų
Temperatūra 13°C
Drėgmė 82%
Slėgis 999 hPa
Matomumas 10 km arba daugiau
Mažai debesys ne aukštis 2700 ft
Su prošvaistėmis ne aukštis 4300 ft
lietus

METAR: ENAT 200450Z 27008KT 9999 -RA FEW027 BKN043 13/10 Q0999 RMK WIND 700FT 24016KT

Laikas: 07:10 (05:10 UTC)

Prognozė

Ataskaita buvo paskelbta 3 valandos ir 10 minutes, ne 02:00 UTC
Prognozė galioja nuo 20 metu 03 UTC su 20 metu 12 UTC
Vėjas 5 kt iš Šiaurės
Matomumas 10 km arba daugiau
Mažai debesys ne aukštis 1500 ft
Su prošvaistėmis ne aukštis 2500 ft
lietus

TAF: ENAT 200200Z 2003/2012 35005KT 9999 -SHRA FEW015 BKN025

Orai ataskaitas ir orų prognozės (METAR, TAF).

turimą stotys yra geltonos ir raudonos taškus žemėlapyje.

Perkelti pele per norėdami pamatyti stoties vardą.

Tada spustelėkite, norėdami matyti oro stebėjimo ir prognozės.

Norėdami pakeisti žemėlapį: spustelėkite ant žalios mygtukų su juodo kryžiaus žemyn,; žalią mygtuką su brūkšneliu, jei norite nutolinti; arba žalių rodyklių gretimoms žemėlapius.


METAR-TAF: